シアトル/タコマ の空港の天気 - METARとTAF

シアトル・タコマ国際空港 ( KSEA / SEA ) - アメリカ ワシントン州シアトル
飛行場実況気象(Metar)
観測時間01/28 23:53 PST (01/29 07:53 UTC)
風向・風速南東 2m/s
視程10km以上
天気現象
なし
気温2.2℃
湿度56%
気圧1025.8hPa
METARKSEA 290753Z 14004KT 10SM CLR 02/M06 A3026 RMK AO2 SLP258 T00221056 401001022
過去の天気等 Google飛行場航空写真 Wunderground天気予報

過去48時間のMETAR

飛行場予報(TAF)
発表時間: 1/28 21:20 PST (1/29 05:20 UTC)
予報対象時間: 28日22時 PST ~ 30日4時 PST
風向・風速東南東 2m/s
視程10km以上
全天の4割程度の雲 雲底高度 6100m
29日6時 PST から
風向・風速不定 2m/s
視程10km以上
全天の4割程度の雲 雲底高度 60m
29日8時 PST から
風向・風速不定 2m/s
視程10km以上
全天の8割程度の雲 雲底高度 6100m
29日15時 PST から
風向・風速不定 2m/s
視程10km以上
全天を覆う雲 雲底高度 3050m
30日0時 PST から
風向・風速東南東 3m/s
視程10km以上
全天を覆う雲 雲底高度 1520m
KSEA 290520Z 2906/3012 12004KT P6SM SCT200
FM291400 VRB03KT P6SM SCT002
FM291600 VRB03KT P6SM BKN200
FM292300 VRB03KT P6SM OVC100
FM300800 12006KT P6SM OVC050